Kenn, Washington
Current Conditions -  °F | °C
As of 12:01 AM on Monday 26 Jan 2015 (Local Time) from KPSC Reporting Station
Overcast Overcast  
Wind Chill: 39°   Ceiling: 500
Heat Index: 39°   Visibility: 8mi
Dew Point: 39°   Wind: 0mph
Humidity: 100%   Direction: NA
Pressure: 30.17"   Gusts: NA
Location:  46.2117°N, 119.173°W
Report Text: KPSC 260801Z AUTO 00000KT 8SM OVC005 04/04 A3017 RMK AO2 T00390039
Loading
Personal Weather Stations






























Interactive Weather Map New forecast layout! Learn more

10-Day Weather Forecast

Advertisements
Track Severe Weather on mobile